sensor_id;sensor_type;location;lat;lon;timestamp;P1;durP1;ratioP1;P2;durP2;ratioP2
9124;SDS011;4597;48.730;9.114;2022-10-16T00:00:44;3.73;;;1.40;;
9124;SDS011;4597;48.730;9.114;2022-10-16T00:03:10;8.70;;;1.83;;
9124;SDS011;4597;48.730;9.114;2022-10-16T00:05:40;3.23;;;1.73;;
9124;SDS011;4597;48.730;9.114;2022-10-16T00:08:07;5.47;;;1.70;;
9124;SDS011;4597;48.730;9.114;2022-10-16T00:10:33;3.57;;;1.30;;
9124;SDS011;4597;48.730;9.114;2022-10-16T00:12:59;1.70;;;1.20;;
9124;SDS011;4597;48.730;9.114;2022-10-16T00:15:25;2.03;;;1.20;;
9124;SDS011;4597;48.730;9.114;2022-10-16T00:17:50;4.10;;;1.30;;
9124;SDS011;4597;48.730;9.114;2022-10-16T00:20:16;5.00;;;1.43;;
9124;SDS011;4597;48.730;9.114;2022-10-16T00:22:41;1.57;;;1.37;;
9124;SDS011;4597;48.730;9.114;2022-10-16T00:25:07;3.07;;;1.40;;
9124;SDS011;4597;48.730;9.114;2022-10-16T00:27:33;2.00;;;1.43;;
9124;SDS011;4597;48.730;9.114;2022-10-16T00:29:58;6.33;;;1.40;;
9124;SDS011;4597;48.730;9.114;2022-10-16T00:32:24;4.27;;;1.53;;
9124;SDS011;4597;48.730;9.114;2022-10-16T00:34:50;8.30;;;1.57;;
9124;SDS011;4597;48.730;9.114;2022-10-16T00:37:15;1.33;;;1.10;;
9124;SDS011;4597;48.730;9.114;2022-10-16T00:39:41;3.77;;;1.30;;
9124;SDS011;4597;48.730;9.114;2022-10-16T00:42:06;1.50;;;1.40;;
9124;SDS011;4597;48.730;9.114;2022-10-16T00:44:54;6.23;;;1.70;;
9124;SDS011;4597;48.730;9.114;2022-10-16T00:47:29;1.27;;;1.17;;
9124;SDS011;4597;48.730;9.114;2022-10-16T00:52:58;1.33;;;1.23;;
9124;SDS011;4597;48.730;9.114;2022-10-16T00:55:25;2.23;;;1.30;;
9124;SDS011;4597;48.730;9.114;2022-10-16T00:57:53;1.53;;;1.20;;
9124;SDS011;4597;48.730;9.114;2022-10-16T01:00:23;3.37;;;1.60;;
9124;SDS011;4597;48.730;9.114;2022-10-16T01:02:52;1.40;;;1.30;;
9124;SDS011;4597;48.730;9.114;2022-10-16T01:05:23;7.77;;;1.70;;
9124;SDS011;4597;48.730;9.114;2022-10-16T01:08:19;3.23;;;1.40;;
9124;SDS011;4597;48.730;9.114;2022-10-16T01:10:50;2.30;;;1.30;;
9124;SDS011;4597;48.730;9.114;2022-10-16T01:13:24;2.43;;;1.43;;
9124;SDS011;4597;48.730;9.114;2022-10-16T01:16:18;4.13;;;1.37;;
9124;SDS011;4597;48.730;9.114;2022-10-16T01:18:51;4.40;;;1.50;;
9124;SDS011;4597;48.730;9.114;2022-10-16T01:21:25;1.30;;;1.20;;
9124;SDS011;4597;48.730;9.114;2022-10-16T01:24:09;1.47;;;1.27;;
9124;SDS011;4597;48.730;9.114;2022-10-16T01:29:13;1.40;;;1.30;;
9124;SDS011;4597;48.730;9.114;2022-10-16T01:31:44;1.60;;;1.60;;
9124;SDS011;4597;48.730;9.114;2022-10-16T01:34:51;4.20;;;2.10;;
9124;SDS011;4597;48.730;9.114;2022-10-16T01:37:22;2.63;;;1.70;;
9124;SDS011;4597;48.730;9.114;2022-10-16T01:39:57;1.70;;;1.60;;
9124;SDS011;4597;48.730;9.114;2022-10-16T01:42:25;3.00;;;1.20;;
9124;SDS011;4597;48.730;9.114;2022-10-16T01:44:55;1.30;;;1.30;;
9124;SDS011;4597;48.730;9.114;2022-10-16T01:47:23;1.53;;;1.43;;
9124;SDS011;4597;48.730;9.114;2022-10-16T01:49:51;4.10;;;1.40;;
9124;SDS011;4597;48.730;9.114;2022-10-16T01:52:19;3.27;;;1.33;;
9124;SDS011;4597;48.730;9.114;2022-10-16T01:54:48;2.77;;;1.33;;
9124;SDS011;4597;48.730;9.114;2022-10-16T01:57:17;2.33;;;1.37;;
9124;SDS011;4597;48.730;9.114;2022-10-16T01:59:46;1.97;;;1.33;;
9124;SDS011;4597;48.730;9.114;2022-10-16T02:02:15;1.47;;;1.37;;
9124;SDS011;4597;48.730;9.114;2022-10-16T02:04:47;1.80;;;1.30;;
9124;SDS011;4597;48.730;9.114;2022-10-16T02:07:17;2.33;;;1.27;;
9124;SDS011;4597;48.730;9.114;2022-10-16T02:09:43;4.53;;;1.43;;
9124;SDS011;4597;48.730;9.114;2022-10-16T02:14:55;5.50;;;1.50;;
9124;SDS011;4597;48.730;9.114;2022-10-16T02:17:21;3.03;;;1.30;;
9124;SDS011;4597;48.730;9.114;2022-10-16T02:19:48;6.97;;;1.50;;
9124;SDS011;4597;48.730;9.114;2022-10-16T02:22:17;5.27;;;1.40;;
9124;SDS011;4597;48.730;9.114;2022-10-16T02:24:57;3.30;;;1.50;;
9124;SDS011;4597;48.730;9.114;2022-10-16T02:27:27;3.07;;;1.47;;
9124;SDS011;4597;48.730;9.114;2022-10-16T02:30:14;2.10;;;1.30;;
9124;SDS011;4597;48.730;9.114;2022-10-16T02:32:44;2.73;;;1.57;;
9124;SDS011;4597;48.730;9.114;2022-10-16T02:35:13;4.17;;;1.20;;
9124;SDS011;4597;48.730;9.114;2022-10-16T02:37:43;2.60;;;1.40;;
9124;SDS011;4597;48.730;9.114;2022-10-16T02:40:10;1.37;;;1.27;;
9124;SDS011;4597;48.730;9.114;2022-10-16T02:42:38;6.50;;;1.40;;
9124;SDS011;4597;48.730;9.114;2022-10-16T02:45:08;7.60;;;1.87;;
9124;SDS011;4597;48.730;9.114;2022-10-16T02:47:35;5.90;;;1.93;;
9124;SDS011;4597;48.730;9.114;2022-10-16T02:50:00;5.77;;;1.20;;
9124;SDS011;4597;48.730;9.114;2022-10-16T02:52:26;1.57;;;1.20;;
9124;SDS011;4597;48.730;9.114;2022-10-16T02:54:52;3.17;;;1.43;;
9124;SDS011;4597;48.730;9.114;2022-10-16T02:57:17;4.50;;;1.50;;
9124;SDS011;4597;48.730;9.114;2022-10-16T02:59:43;3.37;;;1.47;;
9124;SDS011;4597;48.730;9.114;2022-10-16T03:02:09;2.63;;;1.20;;
9124;SDS011;4597;48.730;9.114;2022-10-16T03:04:35;1.57;;;1.43;;
9124;SDS011;4597;48.730;9.114;2022-10-16T03:07:01;2.80;;;1.50;;
9124;SDS011;4597;48.730;9.114;2022-10-16T03:09:26;2.93;;;1.20;;
9124;SDS011;4597;48.730;9.114;2022-10-16T03:11:52;4.00;;;1.60;;
9124;SDS011;4597;48.730;9.114;2022-10-16T03:14:17;1.60;;;1.50;;
9124;SDS011;4597;48.730;9.114;2022-10-16T03:16:43;1.50;;;1.40;;
9124;SDS011;4597;48.730;9.114;2022-10-16T03:19:08;1.33;;;1.20;;
9124;SDS011;4597;48.730;9.114;2022-10-16T03:21:34;1.30;;;1.20;;
9124;SDS011;4597;48.730;9.114;2022-10-16T03:24:00;2.77;;;1.63;;
9124;SDS011;4597;48.730;9.114;2022-10-16T03:26:25;7.33;;;1.70;;
9124;SDS011;4597;48.730;9.114;2022-10-16T03:28:51;1.73;;;1.30;;
9124;SDS011;4597;48.730;9.114;2022-10-16T03:31:16;2.07;;;1.23;;
9124;SDS011;4597;48.730;9.114;2022-10-16T03:33:42;4.03;;;1.47;;
9124;SDS011;4597;48.730;9.114;2022-10-16T03:36:07;2.90;;;1.60;;
9124;SDS011;4597;48.730;9.114;2022-10-16T03:38:33;1.77;;;1.30;;
9124;SDS011;4597;48.730;9.114;2022-10-16T03:40:58;1.53;;;1.23;;
9124;SDS011;4597;48.730;9.114;2022-10-16T03:43:24;6.43;;;1.93;;
9124;SDS011;4597;48.730;9.114;2022-10-16T03:45:50;7.87;;;1.80;;
9124;SDS011;4597;48.730;9.114;2022-10-16T03:48:16;2.57;;;1.20;;
9124;SDS011;4597;48.730;9.114;2022-10-16T03:50:42;2.30;;;1.40;;
9124;SDS011;4597;48.730;9.114;2022-10-16T03:53:07;1.50;;;1.40;;
9124;SDS011;4597;48.730;9.114;2022-10-16T03:55:34;1.53;;;1.30;;
9124;SDS011;4597;48.730;9.114;2022-10-16T03:58:00;2.40;;;1.37;;
9124;SDS011;4597;48.730;9.114;2022-10-16T04:00:25;1.97;;;1.40;;
9124;SDS011;4597;48.730;9.114;2022-10-16T04:02:51;5.70;;;1.37;;
9124;SDS011;4597;48.730;9.114;2022-10-16T04:05:16;4.17;;;1.37;;
9124;SDS011;4597;48.730;9.114;2022-10-16T04:07:42;2.00;;;1.40;;
9124;SDS011;4597;48.730;9.114;2022-10-16T04:10:07;3.43;;;1.40;;
9124;SDS011;4597;48.730;9.114;2022-10-16T04:12:33;2.77;;;1.37;;
9124;SDS011;4597;48.730;9.114;2022-10-16T04:14:59;6.30;;;2.27;;
9124;SDS011;4597;48.730;9.114;2022-10-16T04:17:24;2.77;;;1.60;;
9124;SDS011;4597;48.730;9.114;2022-10-16T04:19:50;2.67;;;1.40;;
9124;SDS011;4597;48.730;9.114;2022-10-16T04:22:15;2.93;;;1.47;;
9124;SDS011;4597;48.730;9.114;2022-10-16T04:24:41;3.50;;;1.60;;
9124;SDS011;4597;48.730;9.114;2022-10-16T04:27:06;1.53;;;1.33;;
9124;SDS011;4597;48.730;9.114;2022-10-16T04:29:31;3.40;;;1.47;;
9124;SDS011;4597;48.730;9.114;2022-10-16T04:31:57;1.73;;;1.50;;
9124;SDS011;4597;48.730;9.114;2022-10-16T04:34:22;2.00;;;1.40;;
9124;SDS011;4597;48.730;9.114;2022-10-16T04:36:48;4.63;;;1.90;;
9124;SDS011;4597;48.730;9.114;2022-10-16T04:39:16;4.53;;;1.67;;
9124;SDS011;4597;48.730;9.114;2022-10-16T04:41:42;4.97;;;1.43;;
9124;SDS011;4597;48.730;9.114;2022-10-16T04:44:07;1.97;;;1.50;;
9124;SDS011;4597;48.730;9.114;2022-10-16T04:46:33;2.80;;;1.50;;
9124;SDS011;4597;48.730;9.114;2022-10-16T04:48:59;1.20;;;1.20;;
9124;SDS011;4597;48.730;9.114;2022-10-16T04:51:24;2.33;;;1.70;;
9124;SDS011;4597;48.730;9.114;2022-10-16T04:53:51;4.17;;;1.50;;
9124;SDS011;4597;48.730;9.114;2022-10-16T04:56:16;4.27;;;1.50;;
9124;SDS011;4597;48.730;9.114;2022-10-16T04:58:42;1.87;;;1.60;;
9124;SDS011;4597;48.730;9.114;2022-10-16T05:01:07;2.30;;;1.40;;
9124;SDS011;4597;48.730;9.114;2022-10-16T05:03:33;1.50;;;1.40;;
9124;SDS011;4597;48.730;9.114;2022-10-16T05:05:59;3.63;;;1.83;;
9124;SDS011;4597;48.730;9.114;2022-10-16T05:08:24;2.03;;;1.90;;
9124;SDS011;4597;48.730;9.114;2022-10-16T05:10:50;1.87;;;1.50;;
9124;SDS011;4597;48.730;9.114;2022-10-16T05:13:15;2.63;;;1.50;;
9124;SDS011;4597;48.730;9.114;2022-10-16T05:15:41;1.77;;;1.40;;
9124;SDS011;4597;48.730;9.114;2022-10-16T05:18:08;2.10;;;1.57;;
9124;SDS011;4597;48.730;9.114;2022-10-16T05:20:34;5.80;;;1.90;;
9124;SDS011;4597;48.730;9.114;2022-10-16T05:22:59;2.80;;;1.50;;
9124;SDS011;4597;48.730;9.114;2022-10-16T05:25:25;1.60;;;1.50;;
9124;SDS011;4597;48.730;9.114;2022-10-16T05:27:50;5.47;;;1.53;;
9124;SDS011;4597;48.730;9.114;2022-10-16T05:30:16;5.20;;;1.57;;
9124;SDS011;4597;48.730;9.114;2022-10-16T05:32:46;2.27;;;1.30;;
9124;SDS011;4597;48.730;9.114;2022-10-16T05:35:12;1.87;;;1.50;;
9124;SDS011;4597;48.730;9.114;2022-10-16T05:37:38;5.40;;;1.53;;
9124;SDS011;4597;48.730;9.114;2022-10-16T05:40:03;4.43;;;1.60;;
9124;SDS011;4597;48.730;9.114;2022-10-16T05:42:30;1.37;;;1.37;;
9124;SDS011;4597;48.730;9.114;2022-10-16T05:44:55;1.40;;;1.30;;
9124;SDS011;4597;48.730;9.114;2022-10-16T05:47:21;2.30;;;1.50;;
9124;SDS011;4597;48.730;9.114;2022-10-16T05:49:46;2.93;;;1.70;;
9124;SDS011;4597;48.730;9.114;2022-10-16T05:52:12;2.60;;;1.67;;
9124;SDS011;4597;48.730;9.114;2022-10-16T05:54:37;3.27;;;1.67;;
9124;SDS011;4597;48.730;9.114;2022-10-16T05:57:03;3.47;;;2.20;;
9124;SDS011;4597;48.730;9.114;2022-10-16T05:59:30;1.80;;;1.70;;
9124;SDS011;4597;48.730;9.114;2022-10-16T06:01:56;1.80;;;1.70;;
9124;SDS011;4597;48.730;9.114;2022-10-16T06:04:22;4.57;;;1.80;;
9124;SDS011;4597;48.730;9.114;2022-10-16T06:06:47;3.43;;;1.70;;
9124;SDS011;4597;48.730;9.114;2022-10-16T06:09:13;2.20;;;1.70;;
9124;SDS011;4597;48.730;9.114;2022-10-16T06:11:38;4.90;;;1.87;;
9124;SDS011;4597;48.730;9.114;2022-10-16T06:14:04;4.93;;;1.90;;
9124;SDS011;4597;48.730;9.114;2022-10-16T06:16:32;4.03;;;1.90;;
9124;SDS011;4597;48.730;9.114;2022-10-16T06:19:01;5.20;;;2.10;;
9124;SDS011;4597;48.730;9.114;2022-10-16T06:21:30;5.23;;;1.90;;
9124;SDS011;4597;48.730;9.114;2022-10-16T06:23:57;1.60;;;1.50;;
9124;SDS011;4597;48.730;9.114;2022-10-16T06:26:24;5.40;;;1.67;;
9124;SDS011;4597;48.730;9.114;2022-10-16T06:28:51;4.33;;;1.60;;
9124;SDS011;4597;48.730;9.114;2022-10-16T06:31:16;1.80;;;1.70;;
9124;SDS011;4597;48.730;9.114;2022-10-16T06:33:43;2.40;;;2.20;;
9124;SDS011;4597;48.730;9.114;2022-10-16T06:36:14;2.97;;;2.20;;
9124;SDS011;4597;48.730;9.114;2022-10-16T06:38:41;2.83;;;2.30;;
9124;SDS011;4597;48.730;9.114;2022-10-16T06:41:08;3.17;;;2.53;;
9124;SDS011;4597;48.730;9.114;2022-10-16T06:43:39;3.10;;;2.90;;
9124;SDS011;4597;48.730;9.114;2022-10-16T06:46:05;2.90;;;2.70;;
9124;SDS011;4597;48.730;9.114;2022-10-16T06:48:32;2.87;;;2.67;;
9124;SDS011;4597;48.730;9.114;2022-10-16T06:53:31;3.70;;;2.73;;
9124;SDS011;4597;48.730;9.114;2022-10-16T06:55:58;2.73;;;2.57;;
9124;SDS011;4597;48.730;9.114;2022-10-16T06:58:31;2.40;;;2.20;;
9124;SDS011;4597;48.730;9.114;2022-10-16T07:00:56;2.93;;;2.73;;
9124;SDS011;4597;48.730;9.114;2022-10-16T07:03:22;3.07;;;2.87;;
9124;SDS011;4597;48.730;9.114;2022-10-16T07:05:47;2.87;;;2.77;;
9124;SDS011;4597;48.730;9.114;2022-10-16T07:08:13;6.30;;;2.83;;
9124;SDS011;4597;48.730;9.114;2022-10-16T07:10:38;5.30;;;2.90;;
9124;SDS011;4597;48.730;9.114;2022-10-16T07:13:04;2.77;;;2.60;;
9124;SDS011;4597;48.730;9.114;2022-10-16T07:15:30;4.60;;;3.00;;
9124;SDS011;4597;48.730;9.114;2022-10-16T07:17:55;3.73;;;2.90;;
9124;SDS011;4597;48.730;9.114;2022-10-16T07:20:21;4.60;;;3.03;;
9124;SDS011;4597;48.730;9.114;2022-10-16T07:22:46;3.13;;;2.80;;
9124;SDS011;4597;48.730;9.114;2022-10-16T07:25:12;2.80;;;2.60;;
9124;SDS011;4597;48.730;9.114;2022-10-16T07:27:38;10.37;;;7.73;;
9124;SDS011;4597;48.730;9.114;2022-10-16T07:30:03;7.47;;;5.93;;
9124;SDS011;4597;48.730;9.114;2022-10-16T07:32:29;8.10;;;4.23;;
9124;SDS011;4597;48.730;9.114;2022-10-16T07:34:56;4.47;;;3.17;;
9124;SDS011;4597;48.730;9.114;2022-10-16T07:37:21;5.03;;;3.57;;
9124;SDS011;4597;48.730;9.114;2022-10-16T07:39:47;5.43;;;3.00;;
9124;SDS011;4597;48.730;9.114;2022-10-16T07:42:13;3.37;;;3.03;;
9124;SDS011;4597;48.730;9.114;2022-10-16T07:44:38;3.70;;;2.77;;
9124;SDS011;4597;48.730;9.114;2022-10-16T07:47:04;2.10;;;1.90;;
9124;SDS011;4597;48.730;9.114;2022-10-16T07:49:30;2.10;;;1.90;;
9124;SDS011;4597;48.730;9.114;2022-10-16T07:51:56;1.80;;;1.70;;
9124;SDS011;4597;48.730;9.114;2022-10-16T07:54:21;2.00;;;1.60;;
9124;SDS011;4597;48.730;9.114;2022-10-16T07:56:47;2.40;;;2.20;;
9124;SDS011;4597;48.730;9.114;2022-10-16T07:59:12;6.30;;;2.23;;
9124;SDS011;4597;48.730;9.114;2022-10-16T08:01:38;2.83;;;2.33;;
9124;SDS011;4597;48.730;9.114;2022-10-16T08:04:04;3.10;;;2.20;;
9124;SDS011;4597;48.730;9.114;2022-10-16T08:06:34;3.70;;;1.60;;
9124;SDS011;4597;48.730;9.114;2022-10-16T08:09:02;1.63;;;1.53;;
9124;SDS011;4597;48.730;9.114;2022-10-16T08:11:27;1.60;;;1.50;;
9124;SDS011;4597;48.730;9.114;2022-10-16T08:13:53;1.60;;;1.50;;
9124;SDS011;4597;48.730;9.114;2022-10-16T08:16:18;2.73;;;1.73;;
9124;SDS011;4597;48.730;9.114;2022-10-16T08:18:44;2.50;;;1.70;;
9124;SDS011;4597;48.730;9.114;2022-10-16T08:21:15;1.90;;;1.37;;
9124;SDS011;4597;48.730;9.114;2022-10-16T08:23:42;2.07;;;1.80;;
9124;SDS011;4597;48.730;9.114;2022-10-16T08:26:09;2.80;;;1.90;;
9124;SDS011;4597;48.730;9.114;2022-10-16T08:28:35;2.10;;;1.70;;
9124;SDS011;4597;48.730;9.114;2022-10-16T08:31:04;1.70;;;1.50;;
9124;SDS011;4597;48.730;9.114;2022-10-16T08:33:31;1.90;;;1.80;;
9124;SDS011;4597;48.730;9.114;2022-10-16T08:35:56;4.17;;;2.00;;
9124;SDS011;4597;48.730;9.114;2022-10-16T08:38:22;1.97;;;1.83;;
9124;SDS011;4597;48.730;9.114;2022-10-16T08:40:47;2.23;;;1.70;;
9124;SDS011;4597;48.730;9.114;2022-10-16T08:48:49;3.03;;;1.67;;
9124;SDS011;4597;48.730;9.114;2022-10-16T08:53:51;1.90;;;1.80;;
9124;SDS011;4597;48.730;9.114;2022-10-16T08:56:22;2.43;;;1.50;;
9124;SDS011;4597;48.730;9.114;2022-10-16T08:58:49;1.70;;;1.60;;
9124;SDS011;4597;48.730;9.114;2022-10-16T09:01:17;2.67;;;1.57;;
9124;SDS011;4597;48.730;9.114;2022-10-16T09:11:50;1.90;;;1.80;;
9124;SDS011;4597;48.730;9.114;2022-10-16T09:20:24;2.17;;;1.47;;
9124;SDS011;4597;48.730;9.114;2022-10-16T09:22:54;2.20;;;2.00;;
9124;SDS011;4597;48.730;9.114;2022-10-16T09:25:29;1.90;;;1.80;;
9124;SDS011;4597;48.730;9.114;2022-10-16T09:27:56;3.23;;;1.80;;
9124;SDS011;4597;48.730;9.114;2022-10-16T09:30:22;1.70;;;1.60;;
9124;SDS011;4597;48.730;9.114;2022-10-16T09:32:51;1.87;;;1.53;;
9124;SDS011;4597;48.730;9.114;2022-10-16T09:35:31;3.97;;;1.90;;
9124;SDS011;4597;48.730;9.114;2022-10-16T09:38:03;1.73;;;1.50;;
9124;SDS011;4597;48.730;9.114;2022-10-16T09:40:38;2.20;;;1.67;;
9124;SDS011;4597;48.730;9.114;2022-10-16T09:43:23;1.73;;;1.63;;
9124;SDS011;4597;48.730;9.114;2022-10-16T09:46:24;2.30;;;1.80;;
9124;SDS011;4597;48.730;9.114;2022-10-16T09:48:59;1.70;;;1.60;;
9124;SDS011;4597;48.730;9.114;2022-10-16T09:51:31;1.73;;;1.40;;
9124;SDS011;4597;48.730;9.114;2022-10-16T09:53:59;1.60;;;1.50;;
9124;SDS011;4597;48.730;9.114;2022-10-16T09:56:27;1.83;;;1.70;;
9124;SDS011;4597;48.730;9.114;2022-10-16T09:58:59;5.47;;;1.77;;
9124;SDS011;4597;48.730;9.114;2022-10-16T10:01:32;2.87;;;1.80;;
9124;SDS011;4597;48.730;9.114;2022-10-16T10:04:03;3.00;;;1.90;;
9124;SDS011;4597;48.730;9.114;2022-10-16T10:06:30;2.17;;;1.80;;
9124;SDS011;4597;48.730;9.114;2022-10-16T10:09:04;4.00;;;2.10;;
9124;SDS011;4597;48.730;9.114;2022-10-16T10:11:49;3.03;;;1.93;;
9124;SDS011;4597;48.730;9.114;2022-10-16T10:14:58;2.00;;;1.80;;
9124;SDS011;4597;48.730;9.114;2022-10-16T10:19:47;2.23;;;1.97;;
9124;SDS011;4597;48.730;9.114;2022-10-16T10:22:18;2.73;;;1.83;;
9124;SDS011;4597;48.730;9.114;2022-10-16T10:30:41;1.60;;;1.47;;
9124;SDS011;4597;48.730;9.114;2022-10-16T10:33:22;3.23;;;1.90;;
9124;SDS011;4597;48.730;9.114;2022-10-16T10:46:39;1.50;;;1.50;;
9124;SDS011;4597;48.730;9.114;2022-10-16T11:01:01;2.00;;;1.50;;
9124;SDS011;4597;48.730;9.114;2022-10-16T11:06:12;1.60;;;1.50;;
9124;SDS011;4597;48.730;9.114;2022-10-16T11:08:50;1.70;;;1.60;;
9124;SDS011;4597;48.730;9.114;2022-10-16T11:11:41;3.17;;;1.80;;
9124;SDS011;4597;48.730;9.114;2022-10-16T11:19:25;2.00;;;1.90;;
9124;SDS011;4597;48.730;9.114;2022-10-16T11:22:00;2.30;;;1.63;;
9124;SDS011;4597;48.730;9.114;2022-10-16T11:27:23;1.83;;;1.70;;
9124;SDS011;4597;48.730;9.114;2022-10-16T11:29:59;1.80;;;1.70;;
9124;SDS011;4597;48.730;9.114;2022-10-16T11:32:31;2.83;;;1.80;;
9124;SDS011;4597;48.730;9.114;2022-10-16T11:35:21;1.83;;;1.67;;
9124;SDS011;4597;48.730;9.114;2022-10-16T11:37:57;1.90;;;1.80;;
9124;SDS011;4597;48.730;9.114;2022-10-16T11:40:33;2.77;;;2.00;;
9124;SDS011;4597;48.730;9.114;2022-10-16T11:43:14;1.40;;;1.40;;
9124;SDS011;4597;48.730;9.114;2022-10-16T11:45:49;1.50;;;1.40;;
9124;SDS011;4597;48.730;9.114;2022-10-16T11:51:19;1.60;;;1.50;;
9124;SDS011;4597;48.730;9.114;2022-10-16T11:56:32;2.27;;;1.70;;
9124;SDS011;4597;48.730;9.114;2022-10-16T11:59:13;2.10;;;1.70;;
9124;SDS011;4597;48.730;9.114;2022-10-16T12:01:45;1.60;;;1.50;;
9124;SDS011;4597;48.730;9.114;2022-10-16T12:04:41;1.83;;;1.60;;
9124;SDS011;4597;48.730;9.114;2022-10-16T12:07:14;1.83;;;1.70;;
9124;SDS011;4597;48.730;9.114;2022-10-16T12:09:42;3.07;;;1.53;;
9124;SDS011;4597;48.730;9.114;2022-10-16T12:12:27;1.80;;;1.70;;
9124;SDS011;4597;48.730;9.114;2022-10-16T12:15:18;1.70;;;1.60;;
9124;SDS011;4597;48.730;9.114;2022-10-16T12:17:49;1.57;;;1.47;;
9124;SDS011;4597;48.730;9.114;2022-10-16T12:22:50;2.10;;;1.80;;
9124;SDS011;4597;48.730;9.114;2022-10-16T12:25:33;3.80;;;1.55;;
9124;SDS011;4597;48.730;9.114;2022-10-16T12:28:21;1.70;;;1.60;;
9124;SDS011;4597;48.730;9.114;2022-10-16T12:30:57;1.73;;;1.63;;
9124;SDS011;4597;48.730;9.114;2022-10-16T12:33:35;1.67;;;1.57;;
9124;SDS011;4597;48.730;9.114;2022-10-16T12:36:05;2.83;;;1.65;;
9124;SDS011;4597;48.730;9.114;2022-10-16T12:38:49;1.48;;;1.33;;
9124;SDS011;4597;48.730;9.114;2022-10-16T12:41:27;1.80;;;1.70;;
9124;SDS011;4597;48.730;9.114;2022-10-16T12:43:57;1.58;;;1.58;;
9124;SDS011;4597;48.730;9.114;2022-10-16T12:51:39;2.05;;;1.90;;
9124;SDS011;4597;48.730;9.114;2022-10-16T12:57:02;1.88;;;1.70;;
9124;SDS011;4597;48.730;9.114;2022-10-16T13:11:12;2.00;;;1.90;;
9124;SDS011;4597;48.730;9.114;2022-10-16T13:13:55;1.80;;;1.60;;
9124;SDS011;4597;48.730;9.114;2022-10-16T13:16:53;1.90;;;1.70;;
9124;SDS011;4597;48.730;9.114;2022-10-16T13:33:11;1.60;;;1.50;;
9124;SDS011;4597;48.730;9.114;2022-10-16T13:35:47;1.88;;;1.70;;
9124;SDS011;4597;48.730;9.114;2022-10-16T13:38:15;1.73;;;1.52;;
9124;SDS011;4597;48.730;9.114;2022-10-16T13:40:48;1.73;;;1.63;;
9124;SDS011;4597;48.730;9.114;2022-10-16T13:43:13;2.20;;;1.75;;
9124;SDS011;4597;48.730;9.114;2022-10-16T13:45:40;2.13;;;1.90;;
9124;SDS011;4597;48.730;9.114;2022-10-16T13:48:08;1.88;;;1.73;;
9124;SDS011;4597;48.730;9.114;2022-10-16T13:50:37;1.67;;;1.55;;
9124;SDS011;4597;48.730;9.114;2022-10-16T13:53:06;2.00;;;1.73;;
9124;SDS011;4597;48.730;9.114;2022-10-16T13:55:37;1.88;;;1.60;;
9124;SDS011;4597;48.730;9.114;2022-10-16T13:58:12;1.73;;;1.63;;
9124;SDS011;4597;48.730;9.114;2022-10-16T14:00:38;2.53;;;1.70;;
9124;SDS011;4597;48.730;9.114;2022-10-16T14:03:15;1.63;;;1.45;;
9124;SDS011;4597;48.730;9.114;2022-10-16T14:05:49;1.80;;;1.70;;
9124;SDS011;4597;48.730;9.114;2022-10-16T14:08:16;1.73;;;1.63;;
9124;SDS011;4597;48.730;9.114;2022-10-16T14:10:42;2.65;;;1.70;;
9124;SDS011;4597;48.730;9.114;2022-10-16T14:13:13;1.90;;;1.80;;
9124;SDS011;4597;48.730;9.114;2022-10-16T14:15:45;2.72;;;1.52;;
9124;SDS011;4597;48.730;9.114;2022-10-16T14:18:16;2.80;;;1.65;;
9124;SDS011;4597;48.730;9.114;2022-10-16T14:20:45;2.80;;;1.70;;
9124;SDS011;4597;48.730;9.114;2022-10-16T14:23:22;2.75;;;1.70;;
9124;SDS011;4597;48.730;9.114;2022-10-16T14:28:34;1.65;;;1.58;;
9124;SDS011;4597;48.730;9.114;2022-10-16T14:31:02;1.70;;;1.70;;
9124;SDS011;4597;48.730;9.114;2022-10-16T14:33:46;2.30;;;1.70;;
9124;SDS011;4597;48.730;9.114;2022-10-16T14:36:13;2.67;;;1.67;;
9124;SDS011;4597;48.730;9.114;2022-10-16T14:38:48;1.73;;;1.63;;
9124;SDS011;4597;48.730;9.114;2022-10-16T14:41:40;1.88;;;1.77;;
9124;SDS011;4597;48.730;9.114;2022-10-16T14:44:09;2.00;;;1.90;;
9124;SDS011;4597;48.730;9.114;2022-10-16T14:46:36;2.40;;;1.98;;
9124;SDS011;4597;48.730;9.114;2022-10-16T14:51:36;2.10;;;1.98;;
9124;SDS011;4597;48.730;9.114;2022-10-16T14:54:02;1.83;;;1.73;;
9124;SDS011;4597;48.730;9.114;2022-10-16T14:56:29;2.22;;;1.90;;
9124;SDS011;4597;48.730;9.114;2022-10-16T14:59:25;2.15;;;1.95;;
9124;SDS011;4597;48.730;9.114;2022-10-16T15:02:17;1.90;;;1.80;;
9124;SDS011;4597;48.730;9.114;2022-10-16T15:04:52;5.22;;;1.80;;
9124;SDS011;4597;48.730;9.114;2022-10-16T15:07:17;4.68;;;1.80;;
9124;SDS011;4597;48.730;9.114;2022-10-16T15:09:43;2.70;;;1.58;;
9124;SDS011;4597;48.730;9.114;2022-10-16T15:12:09;1.80;;;1.70;;
9124;SDS011;4597;48.730;9.114;2022-10-16T15:14:34;1.77;;;1.67;;
9124;SDS011;4597;48.730;9.114;2022-10-16T15:17:00;3.75;;;1.70;;
9124;SDS011;4597;48.730;9.114;2022-10-16T15:19:25;3.63;;;1.70;;
9124;SDS011;4597;48.730;9.114;2022-10-16T15:21:51;2.08;;;1.75;;
9124;SDS011;4597;48.730;9.114;2022-10-16T15:24:17;3.58;;;1.70;;
9124;SDS011;4597;48.730;9.114;2022-10-16T15:26:43;2.22;;;1.90;;
9124;SDS011;4597;48.730;9.114;2022-10-16T15:29:10;3.08;;;1.73;;
9124;SDS011;4597;48.730;9.114;2022-10-16T15:31:37;2.95;;;1.70;;
9124;SDS011;4597;48.730;9.114;2022-10-16T15:34:02;4.85;;;1.83;;
9124;SDS011;4597;48.730;9.114;2022-10-16T15:36:32;1.90;;;1.80;;
9124;SDS011;4597;48.730;9.114;2022-10-16T15:39:01;1.58;;;1.50;;
9124;SDS011;4597;48.730;9.114;2022-10-16T15:41:28;3.90;;;2.08;;
9124;SDS011;4597;48.730;9.114;2022-10-16T15:43:53;2.03;;;1.88;;
9124;SDS011;4597;48.730;9.114;2022-10-16T15:46:19;1.80;;;1.60;;
9124;SDS011;4597;48.730;9.114;2022-10-16T15:48:47;4.78;;;2.05;;
9124;SDS011;4597;48.730;9.114;2022-10-16T15:51:13;4.30;;;1.70;;
9124;SDS011;4597;48.730;9.114;2022-10-16T15:53:39;2.60;;;1.92;;
9124;SDS011;4597;48.730;9.114;2022-10-16T15:56:05;3.17;;;2.20;;
9124;SDS011;4597;48.730;9.114;2022-10-16T15:58:31;2.17;;;1.98;;
9124;SDS011;4597;48.730;9.114;2022-10-16T16:00:58;2.50;;;1.95;;
9124;SDS011;4597;48.730;9.114;2022-10-16T16:03:26;2.00;;;1.80;;
9124;SDS011;4597;48.730;9.114;2022-10-16T16:05:52;2.50;;;2.00;;
9124;SDS011;4597;48.730;9.114;2022-10-16T16:08:17;1.98;;;1.88;;
9124;SDS011;4597;48.730;9.114;2022-10-16T16:10:43;2.42;;;1.90;;
9124;SDS011;4597;48.730;9.114;2022-10-16T16:13:09;2.83;;;2.13;;
9124;SDS011;4597;48.730;9.114;2022-10-16T16:15:36;5.07;;;2.33;;
9124;SDS011;4597;48.730;9.114;2022-10-16T16:18:04;3.67;;;2.30;;
9124;SDS011;4597;48.730;9.114;2022-10-16T16:20:30;2.53;;;2.00;;
9124;SDS011;4597;48.730;9.114;2022-10-16T16:22:56;4.88;;;2.30;;
9124;SDS011;4597;48.730;9.114;2022-10-16T16:25:21;2.53;;;1.95;;
9124;SDS011;4597;48.730;9.114;2022-10-16T16:27:47;3.80;;;2.00;;
9124;SDS011;4597;48.730;9.114;2022-10-16T16:30:13;2.88;;;2.53;;
9124;SDS011;4597;48.730;9.114;2022-10-16T16:32:38;3.63;;;1.80;;
9124;SDS011;4597;48.730;9.114;2022-10-16T16:35:04;2.43;;;1.87;;
9124;SDS011;4597;48.730;9.114;2022-10-16T16:37:30;2.10;;;1.92;;
9124;SDS011;4597;48.730;9.114;2022-10-16T16:39:56;2.50;;;2.30;;
9124;SDS011;4597;48.730;9.114;2022-10-16T16:42:23;3.07;;;2.17;;
9124;SDS011;4597;48.730;9.114;2022-10-16T16:44:50;4.33;;;2.00;;
9124;SDS011;4597;48.730;9.114;2022-10-16T16:47:15;4.20;;;2.20;;
9124;SDS011;4597;48.730;9.114;2022-10-16T16:49:41;3.03;;;2.23;;
9124;SDS011;4597;48.730;9.114;2022-10-16T16:52:07;2.50;;;2.40;;
9124;SDS011;4597;48.730;9.114;2022-10-16T16:54:32;2.70;;;2.43;;
9124;SDS011;4597;48.730;9.114;2022-10-16T16:56:58;4.07;;;2.97;;
9124;SDS011;4597;48.730;9.114;2022-10-16T16:59:23;2.80;;;2.60;;
9124;SDS011;4597;48.730;9.114;2022-10-16T17:01:49;6.70;;;2.70;;
9124;SDS011;4597;48.730;9.114;2022-10-16T17:04:15;2.70;;;2.27;;
9124;SDS011;4597;48.730;9.114;2022-10-16T17:06:41;3.07;;;2.77;;
9124;SDS011;4597;48.730;9.114;2022-10-16T17:09:07;3.03;;;2.73;;
9124;SDS011;4597;48.730;9.114;2022-10-16T17:11:34;4.70;;;2.60;;
9124;SDS011;4597;48.730;9.114;2022-10-16T17:14:00;2.70;;;2.50;;
9124;SDS011;4597;48.730;9.114;2022-10-16T17:16:30;2.43;;;2.23;;
9124;SDS011;4597;48.730;9.114;2022-10-16T17:18:59;3.90;;;2.00;;
9124;SDS011;4597;48.730;9.114;2022-10-16T17:21:26;2.17;;;1.90;;
9124;SDS011;4597;48.730;9.114;2022-10-16T17:23:54;4.57;;;2.10;;
9124;SDS011;4597;48.730;9.114;2022-10-16T17:26:20;3.77;;;2.30;;
9124;SDS011;4597;48.730;9.114;2022-10-16T17:28:49;2.53;;;2.17;;